Time;durP1;ratioP1;P1;durP2;ratioP2;P2;SDS_P1;SDS_P2;PMS_P1;PMS_P2;Temp;Humidity;BMP_temperature;BMP_pressure;BME280_temperature;BME280_humidity;BME280_pressure;Samples;Min_cycle;Max_cycle;Signal;HPM_P1;HPM_P2
2024/01/03 00:00:30;;;;;;;1.23;0.40;;;8.60;99.90;;;;;;4757819;30;20644;-86
2024/01/03 00:02:57;;;;;;;1.92;0.73;;;8.60;99.90;;;;;;4760494;30;20493;-85
2024/01/03 00:05:24;;;;;;;1.48;0.60;;;8.60;99.90;;;;;;4761888;30;20200;-85
2024/01/03 00:07:51;;;;;;;1.40;0.50;;;8.60;99.90;;;;;;4772046;30;20223;-86
2024/01/03 00:10:19;;;;;;;1.63;0.40;;;8.60;99.90;;;;;;4757637;30;20279;-86
2024/01/03 00:12:45;;;;;;;3.20;0.50;;;8.60;99.90;;;;;;4774630;30;20267;-85
2024/01/03 00:15:34;;;;;;;1.73;0.60;;;8.70;99.90;;;;;;4763381;30;20230;-86
2024/01/03 00:18:04;;;;;;;2.05;0.50;;;8.80;99.90;;;;;;4757356;30;20203;-86
2024/01/03 00:20:32;;;;;;;4.30;0.93;;;8.80;99.90;;;;;;4767653;30;20227;-86
2024/01/03 00:23:03;;;;;;;2.75;0.60;;;8.90;99.90;;;;;;4767172;30;20660;-86
2024/01/03 00:25:30;;;;;;;3.03;0.60;;;9.00;99.90;;;;;;4767902;30;20194;-87
2024/01/03 00:27:56;;;;;;;2.83;0.50;;;9.10;99.90;;;;;;4764534;30;20228;-87
2024/01/03 00:30:22;;;;;;;4.47;0.57;;;9.20;99.90;;;;;;4764793;30;20651;-87
2024/01/03 00:32:49;;;;;;;3.10;0.68;;;9.30;99.90;;;;;;4766334;30;20191;-85
2024/01/03 00:35:15;;;;;;;5.40;1.20;;;9.30;99.90;;;;;;4786043;30;20290;-86
2024/01/03 00:37:43;;;;;;;3.92;1.13;;;9.30;99.90;;;;;;4789194;30;20187;-84
2024/01/03 00:42:45;;;;;;;1.80;0.73;;;9.20;99.90;;;;;;4823045;24;20570;-84
2024/01/03 00:45:11;;;;;;;2.83;0.60;;;9.20;99.90;;;;;;4768636;30;20229;-85
2024/01/03 00:47:37;;;;;;;1.90;0.50;;;9.20;99.90;;;;;;4770540;30;20227;-85
2024/01/03 00:50:03;;;;;;;2.85;0.73;;;9.20;99.90;;;;;;4773403;30;20287;-86
2024/01/03 00:52:29;;;;;;;2.03;0.50;;;9.20;99.90;;;;;;4775364;29;20203;-85
2024/01/03 00:54:55;;;;;;;1.90;0.50;;;9.10;99.90;;;;;;4762964;30;20192;-84
2024/01/03 00:57:20;;;;;;;0.93;0.40;;;9.20;99.90;;;;;;4768387;30;20203;-85
2024/01/03 00:59:46;;;;;;;1.77;0.50;;;9.10;99.90;;;;;;4765708;30;20246;-83
2024/01/03 01:02:13;;;;;;;2.83;0.70;;;9.10;99.90;;;;;;4781862;30;20190;-90
2024/01/03 01:04:40;;;;;;;1.55;0.50;;;9.10;99.90;;;;;;4789053;29;20191;-85
2024/01/03 01:07:06;;;;;;;0.40;0.40;;;9.00;99.90;;;;;;4769020;30;20228;-82
2024/01/03 01:09:32;;;;;;;2.78;0.50;;;9.00;99.90;;;;;;4769844;30;20289;-83
2024/01/03 01:11:57;;;;;;;2.15;0.52;;;9.00;99.90;;;;;;4765161;30;20196;-84
2024/01/03 01:14:23;;;;;;;1.75;0.65;;;8.90;99.90;;;;;;4789110;30;20191;-84
2024/01/03 01:16:49;;;;;;;1.90;0.82;;;8.90;99.90;;;;;;4772787;30;20271;-84
2024/01/03 01:19:15;;;;;;;2.88;0.60;;;8.90;99.90;;;;;;4789281;30;20195;-85
2024/01/03 01:21:41;;;;;;;1.95;0.65;;;9.00;99.90;;;;;;4772837;30;20203;-84
2024/01/03 01:24:07;;;;;;;5.57;0.60;;;9.00;99.90;;;;;;4765729;30;20199;-83
2024/01/03 01:26:33;;;;;;;1.75;0.60;;;9.00;99.90;;;;;;4765280;30;20226;-86
2024/01/03 01:28:59;;;;;;;3.83;0.75;;;8.90;99.90;;;;;;4758171;30;20267;-84
2024/01/03 01:31:24;;;;;;;1.38;0.60;;;8.90;99.90;;;;;;4782939;30;20192;-82
2024/01/03 01:33:50;;;;;;;2.33;0.73;;;8.90;99.90;;;;;;4764311;30;20612;-86
2024/01/03 01:36:16;;;;;;;4.00;0.88;;;9.00;99.90;;;;;;4767740;30;20612;-83
2024/01/03 01:38:43;;;;;;;3.10;0.77;;;9.00;99.90;;;;;;4762243;30;20202;-84
2024/01/03 01:41:09;;;;;;;4.05;0.82;;;9.00;99.90;;;;;;4764589;30;20773;-82
2024/01/03 01:43:35;;;;;;;4.25;0.80;;;9.10;99.90;;;;;;4778054;30;20270;-87
2024/01/03 01:46:01;;;;;;;3.47;0.80;;;9.10;99.90;;;;;;4765571;30;20254;-87
2024/01/03 01:48:27;;;;;;;8.50;1.52;;;9.20;99.90;;;;;;4772642;30;20215;-84
2024/01/03 01:50:53;;;;;;;3.35;1.02;;;9.40;99.90;;;;;;4765355;30;20220;-86
2024/01/03 01:53:19;;;;;;;7.90;1.35;;;9.40;99.90;;;;;;4772941;30;20202;-88
2024/01/03 01:55:45;;;;;;;5.15;0.90;;;9.40;99.90;;;;;;4787287;30;20539;-83
2024/01/03 01:58:13;;;;;;;5.15;0.90;;;9.40;99.90;;;;;;4759235;30;20233;-84
2024/01/03 02:00:39;;;;;;;4.10;1.25;;;9.40;99.90;;;;;;4764207;30;20203;-83
2024/01/03 02:03:08;;;;;;;3.08;0.80;;;9.50;99.90;;;;;;4781691;30;20198;-84
2024/01/03 02:05:37;;;;;;;3.95;1.02;;;9.50;99.90;;;;;;4781699;30;20227;-84
2024/01/03 02:08:07;;;;;;;6.57;1.48;;;9.60;99.90;;;;;;4772556;30;20318;-84
2024/01/03 02:10:33;;;;;;;4.55;1.02;;;9.60;99.90;;;;;;4781539;30;20199;-87
2024/01/03 02:12:58;;;;;;;4.10;1.10;;;9.60;99.90;;;;;;4765001;30;20199;-92
2024/01/03 02:15:27;;;;;;;14.80;2.05;;;9.60;99.90;;;;;;4766836;30;20188;-84
2024/01/03 02:17:55;;;;;;;6.45;1.30;;;9.70;99.90;;;;;;4783110;29;20191;-91
2024/01/03 02:20:23;;;;;;;7.15;1.42;;;9.80;99.90;;;;;;4763586;30;20192;-84
2024/01/03 02:22:49;;;;;;;5.03;1.05;;;9.80;99.90;;;;;;4773435;30;20255;-93
2024/01/03 02:25:14;;;;;;;8.23;1.50;;;9.70;99.90;;;;;;4766625;30;20286;-94
2024/01/03 02:27:40;;;;;;;4.88;1.10;;;9.70;99.90;;;;;;4789266;30;20219;-93
2024/01/03 02:30:08;;;;;;;5.32;1.02;;;9.70;99.90;;;;;;4775198;30;20257;-94
2024/01/03 02:32:34;;;;;;;6.03;1.30;;;9.70;99.90;;;;;;4766174;30;20386;-92
2024/01/03 02:35:01;;;;;;;8.45;1.45;;;9.70;99.90;;;;;;4759231;30;20195;-95
2024/01/03 02:37:27;;;;;;;7.45;1.20;;;9.70;99.90;;;;;;4782498;30;20278;-95
2024/01/03 02:39:53;;;;;;;6.72;1.10;;;9.70;99.90;;;;;;4759229;30;20196;-95
2024/01/03 02:42:19;;;;;;;8.52;1.25;;;9.80;99.90;;;;;;4758772;30;20247;-89
2024/01/03 02:44:51;;;;;;;6.93;1.92;;;9.70;99.90;;;;;;4776727;30;20196;-94
2024/01/03 02:47:17;;;;;;;6.60;1.27;;;9.60;99.90;;;;;;4764677;30;20227;-84
2024/01/03 02:49:42;;;;;;;5.65;1.13;;;9.60;99.90;;;;;;4760389;30;20199;-88
2024/01/03 02:52:08;;;;;;;7.28;1.30;;;9.60;99.90;;;;;;4781660;30;20198;-89
2024/01/03 02:54:38;;;;;;;6.60;1.20;;;9.50;99.90;;;;;;4759148;30;20192;-93
2024/01/03 02:57:04;;;;;;;8.73;1.40;;;9.60;99.90;;;;;;4759868;30;20192;-96
2024/01/03 02:59:30;;;;;;;7.10;1.15;;;9.60;99.90;;;;;;4782067;30;20187;-92
2024/01/03 03:01:57;;;;;;;7.40;1.60;;;9.60;99.90;;;;;;4775880;30;20326;-93
2024/01/03 03:04:22;;;;;;;5.30;1.05;;;9.70;99.90;;;;;;4759122;30;20329;-92
2024/01/03 03:06:48;;;;;;;7.00;1.55;;;9.80;99.90;;;;;;4774604;30;20302;-93
2024/01/03 03:09:14;;;;;;;8.18;1.48;;;9.80;99.90;;;;;;4766399;30;20200;-91
2024/01/03 03:11:40;;;;;;;4.00;1.17;;;9.90;99.90;;;;;;4774160;30;20184;-94
2024/01/03 03:14:11;;;;;;;8.63;1.63;;;9.90;99.90;;;;;;4758725;30;20330;-92
2024/01/03 03:16:36;;;;;;;6.82;1.27;;;9.90;99.90;;;;;;4759191;30;20635;-93
2024/01/03 03:19:03;;;;;;;5.30;1.02;;;10.00;99.90;;;;;;4758526;30;20196;-94
2024/01/03 03:21:29;;;;;;;5.78;0.90;;;10.00;99.90;;;;;;4782174;30;20195;-92
2024/01/03 03:23:55;;;;;;;3.45;0.80;;;10.10;99.90;;;;;;4768922;30;20539;-87
2024/01/03 03:26:21;;;;;;;7.40;1.27;;;10.10;99.90;;;;;;4775409;30;20711;-88
2024/01/03 03:28:46;;;;;;;6.53;1.33;;;10.10;99.90;;;;;;4767065;30;20211;-86
2024/01/03 03:31:12;;;;;;;7.65;1.52;;;10.10;99.90;;;;;;4771037;30;20206;-84
2024/01/03 03:33:40;;;;;;;10.02;1.50;;;10.10;99.90;;;;;;4774418;30;20196;-87
2024/01/03 03:36:15;;;;;;;5.07;1.20;;;10.00;99.90;;;;;;4771743;30;20196;-86
2024/01/03 03:38:41;;;;;;;3.60;0.93;;;10.00;99.90;;;;;;4765665;30;20192;-88
2024/01/03 03:41:11;;;;;;;6.50;1.55;;;10.00;99.90;;;;;;4771228;30;20244;-86
2024/01/03 03:43:40;;;;;;;6.47;1.33;;;10.10;99.90;;;;;;4750759;30;20203;-89
2024/01/03 03:46:07;;;;;;;5.05;1.08;;;10.10;99.90;;;;;;4771436;30;20584;-86
2024/01/03 03:48:33;;;;;;;4.40;1.08;;;10.10;99.90;;;;;;4780662;30;20667;-89
2024/01/03 03:51:03;;;;;;;5.30;0.95;;;10.20;99.90;;;;;;4768024;30;20195;-85
2024/01/03 03:53:30;;;;;;;7.47;1.48;;;10.10;99.90;;;;;;4784075;30;20196;-88
2024/01/03 03:55:56;;;;;;;7.13;1.45;;;10.20;99.90;;;;;;4765273;30;20199;-87
2024/01/03 03:58:22;;;;;;;8.10;1.48;;;10.20;99.90;;;;;;4763380;30;20688;-87
2024/01/03 04:00:48;;;;;;;7.55;1.27;;;10.20;99.90;;;;;;4773513;30;20195;-90
2024/01/03 04:03:13;;;;;;;7.80;1.35;;;10.10;99.90;;;;;;4761422;30;20635;-88
2024/01/03 04:05:40;;;;;;;4.25;1.02;;;10.10;99.90;;;;;;4757685;30;20207;-87
2024/01/03 04:08:06;;;;;;;6.95;1.50;;;10.10;99.90;;;;;;4761127;30;20250;-84
2024/01/03 04:10:33;;;;;;;8.73;1.90;;;10.10;99.90;;;;;;4767710;30;20635;-90
2024/01/03 04:12:59;;;;;;;6.95;1.40;;;10.10;99.90;;;;;;4757218;30;20207;-86
2024/01/03 04:15:26;;;;;;;9.27;1.70;;;10.10;99.90;;;;;;4763061;30;20616;-85
2024/01/03 04:17:52;;;;;;;7.30;1.50;;;10.20;99.90;;;;;;4774773;30;20226;-88
2024/01/03 04:20:18;;;;;;;6.85;1.40;;;10.20;99.90;;;;;;4775181;30;20271;-83
2024/01/03 04:22:45;;;;;;;6.07;1.55;;;10.20;99.90;;;;;;4766602;30;20252;-86
2024/01/03 04:25:15;;;;;;;5.78;1.58;;;10.20;99.90;;;;;;4768898;30;20191;-88
2024/01/03 04:27:40;;;;;;;7.90;1.48;;;10.20;99.90;;;;;;4766230;30;20221;-84
2024/01/03 04:30:06;;;;;;;9.68;1.75;;;10.10;99.90;;;;;;4764072;30;20287;-83
2024/01/03 04:32:32;;;;;;;10.38;1.58;;;10.10;99.90;;;;;;4787320;30;20251;-85
2024/01/03 04:34:59;;;;;;;8.15;1.75;;;10.00;99.90;;;;;;4770949;30;20254;-90
2024/01/03 04:37:26;;;;;;;8.73;1.67;;;10.00;99.90;;;;;;4789905;30;20203;-91
2024/01/03 04:39:52;;;;;;;4.97;1.27;;;9.90;99.90;;;;;;4773741;30;20247;-88
2024/01/03 04:42:18;;;;;;;4.82;0.95;;;9.90;99.90;;;;;;4766452;30;20242;-91
2024/01/03 04:44:45;;;;;;;5.05;1.25;;;10.00;99.90;;;;;;4765921;30;20233;-88
2024/01/03 04:47:10;;;;;;;4.55;1.20;;;10.00;99.90;;;;;;4767755;30;20230;-92
2024/01/03 04:49:36;;;;;;;5.13;1.33;;;10.00;99.90;;;;;;4782880;30;20194;-86
2024/01/03 04:52:02;;;;;;;8.45;1.35;;;9.90;99.90;;;;;;4763528;30;20628;-88
2024/01/03 04:54:29;;;;;;;6.93;1.30;;;9.90;99.90;;;;;;4763215;30;20245;-91
2024/01/03 04:56:55;;;;;;;11.05;1.25;;;9.90;99.90;;;;;;4763961;30;20214;-85
2024/01/03 04:59:21;;;;;;;4.82;1.25;;;9.90;99.90;;;;;;4769396;30;20515;-87
2024/01/03 05:01:47;;;;;;;6.43;1.30;;;9.80;99.90;;;;;;4759522;30;20199;-88
2024/01/03 05:04:13;;;;;;;6.97;1.60;;;9.80;99.90;;;;;;4761375;30;20197;-86
2024/01/03 05:06:38;;;;;;;7.53;1.55;;;9.80;99.90;;;;;;4760968;30;20219;-83
2024/01/03 05:09:04;;;;;;;6.55;1.52;;;9.70;99.90;;;;;;4770521;30;20290;-84
2024/01/03 05:11:30;;;;;;;4.18;1.55;;;9.70;99.90;;;;;;4779226;30;20195;-85
2024/01/03 05:13:56;;;;;;;8.52;1.70;;;9.70;99.90;;;;;;4786960;30;20200;-86
2024/01/03 05:16:22;;;;;;;5.40;1.13;;;9.70;99.90;;;;;;4756260;30;20711;-87
2024/01/03 05:18:48;;;;;;;6.88;1.73;;;9.70;99.90;;;;;;4762987;30;20199;-92
2024/01/03 05:21:14;;;;;;;8.40;1.98;;;9.80;99.90;;;;;;4756084;30;20202;-86
2024/01/03 05:23:40;;;;;;;9.88;1.73;;;9.80;99.90;;;;;;4756456;30;20282;-89
2024/01/03 05:26:06;;;;;;;6.93;1.55;;;9.70;99.90;;;;;;4769574;30;20797;-87
2024/01/03 05:28:32;;;;;;;7.90;1.50;;;9.70;99.90;;;;;;4778622;30;20296;-86
2024/01/03 05:30:58;;;;;;;8.38;1.77;;;9.60;99.90;;;;;;4758998;30;20191;-87
2024/01/03 05:33:25;;;;;;;6.10;1.63;;;9.60;99.90;;;;;;4771574;30;20246;-84
2024/01/03 05:35:52;;;;;;;11.43;1.80;;;9.60;99.90;;;;;;4779145;30;20179;-87
2024/01/03 05:38:18;;;;;;;6.57;1.52;;;9.50;99.90;;;;;;4762842;30;20213;-85
2024/01/03 05:40:44;;;;;;;8.35;1.40;;;9.40;99.90;;;;;;4786477;29;20183;-85
2024/01/03 05:43:11;;;;;;;8.35;1.52;;;9.30;99.90;;;;;;4766651;30;20227;-90
2024/01/03 05:45:37;;;;;;;5.90;1.50;;;9.30;99.90;;;;;;4770257;30;20290;-86
2024/01/03 05:48:03;;;;;;;8.63;1.52;;;9.30;99.90;;;;;;4769707;30;20676;-89
2024/01/03 05:50:29;;;;;;;7.40;1.67;;;9.30;99.90;;;;;;4785284;30;20270;-85
2024/01/03 05:52:55;;;;;;;7.72;1.65;;;9.30;99.90;;;;;;4772522;30;20230;-89
2024/01/03 05:55:21;;;;;;;8.43;1.63;;;9.30;99.90;;;;;;4767533;30;20196;-84
2024/01/03 05:57:46;;;;;;;8.10;1.63;;;9.40;99.90;;;;;;4770781;30;20206;-85
2024/01/03 06:00:14;;;;;;;7.97;1.27;;;9.40;99.90;;;;;;4765553;30;20218;-87
2024/01/03 06:02:40;;;;;;;5.07;1.40;;;9.40;99.90;;;;;;4771703;30;20195;-84
2024/01/03 06:05:08;;;;;;;5.75;1.02;;;9.40;99.90;;;;;;4778229;30;20588;-84
2024/01/03 06:07:33;;;;;;;5.47;1.17;;;9.40;99.90;;;;;;4769152;30;20231;-88
2024/01/03 06:09:59;;;;;;;6.07;1.40;;;9.40;99.90;;;;;;4788662;29;20191;-84
2024/01/03 06:12:25;;;;;;;4.35;1.10;;;9.50;99.90;;;;;;4782551;29;20705;-89
2024/01/03 06:14:51;;;;;;;7.47;1.08;;;9.50;99.90;;;;;;4756734;30;20581;-89
2024/01/03 06:17:17;;;;;;;6.93;1.30;;;9.60;99.90;;;;;;4760234;30;20196;-87
2024/01/03 06:19:44;;;;;;;5.43;1.33;;;9.70;99.90;;;;;;4779047;30;20199;-89
2024/01/03 06:22:10;;;;;;;5.50;1.30;;;9.70;99.90;;;;;;4761023;30;20188;-86
2024/01/03 06:24:36;;;;;;;7.35;1.15;;;9.80;99.90;;;;;;4768886;30;20252;-84
2024/01/03 06:27:02;;;;;;;4.35;1.13;;;9.80;99.90;;;;;;4771012;30;20572;-83
2024/01/03 06:29:28;;;;;;;4.38;1.27;;;9.80;99.90;;;;;;4766322;30;20196;-90
2024/01/03 06:31:53;;;;;;;7.68;1.55;;;9.70;99.90;;;;;;4764436;30;20214;-89
2024/01/03 06:34:19;;;;;;;6.97;1.38;;;9.80;99.90;;;;;;4780302;30;20574;-91
2024/01/03 06:36:45;;;;;;;7.07;1.10;;;9.80;99.90;;;;;;4762237;30;20282;-85
2024/01/03 06:39:11;;;;;;;10.30;1.90;;;9.70;99.90;;;;;;4775458;30;20275;-88
2024/01/03 06:41:37;;;;;;;6.65;1.40;;;9.60;99.90;;;;;;4772040;30;20587;-86
2024/01/03 06:44:04;;;;;;;6.47;1.40;;;9.60;99.90;;;;;;4772345;30;20273;-87
2024/01/03 06:46:29;;;;;;;5.63;1.42;;;9.50;99.90;;;;;;4765338;30;20611;-86
2024/01/03 06:48:58;;;;;;;5.25;1.25;;;9.30;99.90;;;;;;4788513;30;20322;-86
2024/01/03 06:51:24;;;;;;;8.20;1.30;;;9.30;99.90;;;;;;4772585;30;20691;-85
2024/01/03 06:53:50;;;;;;;8.32;1.45;;;9.30;99.90;;;;;;4764984;30;20337;-84
2024/01/03 06:56:24;;;;;;;4.82;1.42;;;9.30;99.90;;;;;;4783671;30;20192;-85
2024/01/03 06:58:51;;;;;;;5.10;1.08;;;9.30;99.90;;;;;;4763113;30;20211;-89
2024/01/03 07:01:17;;;;;;;6.47;1.70;;;9.40;99.90;;;;;;4783344;30;20199;-84
2024/01/03 07:03:43;;;;;;;5.55;1.50;;;9.40;99.90;;;;;;4764758;30;20195;-85
2024/01/03 07:06:09;;;;;;;6.68;1.45;;;9.40;99.90;;;;;;4775221;30;20248;-84
2024/01/03 07:08:35;;;;;;;10.50;1.73;;;9.40;99.90;;;;;;4775013;30;20238;-82
2024/01/03 07:11:01;;;;;;;7.47;1.27;;;9.40;99.90;;;;;;4761075;30;20199;-84
2024/01/03 07:13:27;;;;;;;1.92;0.80;;;9.50;99.90;;;;;;4775171;30;20286;-86
2024/01/03 07:15:53;;;;;;;4.93;1.20;;;9.50;99.90;;;;;;4775242;30;20187;-84
2024/01/03 07:18:19;;;;;;;9.00;1.42;;;9.60;99.90;;;;;;4791472;30;20195;-83
2024/01/03 07:20:45;;;;;;;8.05;1.38;;;9.70;99.90;;;;;;4767558;30;20202;-85
2024/01/03 07:23:11;;;;;;;6.60;1.35;;;9.60;99.90;;;;;;4774856;30;20286;-83
2024/01/03 07:25:37;;;;;;;4.15;1.48;;;9.70;99.90;;;;;;4790834;29;20708;-84
2024/01/03 07:28:03;;;;;;;6.57;1.70;;;9.70;99.90;;;;;;4767394;30;20226;-84
2024/01/03 07:30:28;;;;;;;8.73;1.38;;;9.60;99.90;;;;;;4768705;30;20598;-83
2024/01/03 07:32:56;;;;;;;4.80;1.25;;;9.70;99.90;;;;;;4774148;30;20234;-84
2024/01/03 07:35:25;;;;;;;3.90;1.02;;;9.70;99.90;;;;;;4787773;29;20211;-86
2024/01/03 07:37:52;;;;;;;6.18;1.05;;;9.80;99.90;;;;;;4775291;30;20639;-87
2024/01/03 07:40:18;;;;;;;8.38;1.02;;;9.80;99.90;;;;;;4791029;30;20244;-88
2024/01/03 07:42:44;;;;;;;4.55;1.30;;;9.80;99.90;;;;;;4771677;30;20251;-87
2024/01/03 07:45:10;;;;;;;7.85;1.23;;;9.80;99.90;;;;;;4764032;30;20192;-86
2024/01/03 07:47:38;;;;;;;5.97;1.20;;;9.80;99.90;;;;;;4771518;30;20236;-84
2024/01/03 07:50:04;;;;;;;5.30;1.13;;;9.80;99.90;;;;;;4772029;30;20315;-89
2024/01/03 07:52:30;;;;;;;5.63;1.23;;;9.80;99.90;;;;;;4772096;30;20200;-88
2024/01/03 07:54:56;;;;;;;4.43;1.35;;;9.90;99.90;;;;;;4771252;30;20260;-88
2024/01/03 07:57:21;;;;;;;6.45;1.38;;;9.90;99.90;;;;;;4771177;30;20203;-86
2024/01/03 07:59:47;;;;;;;3.33;1.00;;;9.90;99.90;;;;;;4772146;30;20203;-85
2024/01/03 08:02:14;;;;;;;5.13;0.90;;;9.90;99.90;;;;;;4771817;30;20645;-88
2024/01/03 08:04:40;;;;;;;7.78;1.48;;;9.90;99.90;;;;;;4767988;30;20208;-88
2024/01/03 08:07:06;;;;;;;6.72;1.48;;;9.90;99.90;;;;;;4771292;30;20224;-84
2024/01/03 08:09:34;;;;;;;4.57;1.15;;;9.90;99.90;;;;;;4771336;30;20200;-88
2024/01/03 08:12:01;;;;;;;3.65;1.17;;;9.90;99.90;;;;;;4772614;30;20291;-88
2024/01/03 08:14:26;;;;;;;5.15;1.10;;;9.90;99.90;;;;;;4770841;30;20824;-84
2024/01/03 08:16:55;;;;;;;4.68;0.98;;;9.90;99.90;;;;;;4771498;30;20286;-89
2024/01/03 08:19:21;;;;;;;4.78;1.10;;;9.90;99.90;;;;;;4770240;30;20582;-88
2024/01/03 08:21:47;;;;;;;4.00;1.13;;;9.90;99.90;;;;;;4771306;30;20228;-88
2024/01/03 08:24:13;;;;;;;6.97;1.25;;;9.90;99.90;;;;;;4770844;30;20291;-86
2024/01/03 08:26:40;;;;;;;5.80;1.10;;;9.90;99.90;;;;;;4771189;30;20219;-86
2024/01/03 08:29:05;;;;;;;5.15;1.33;;;9.90;99.90;;;;;;4772094;30;20671;-89
2024/01/03 08:31:32;;;;;;;6.65;1.13;;;9.80;99.90;;;;;;4772623;30;20279;-88
2024/01/03 08:33:58;;;;;;;4.57;1.15;;;9.90;99.90;;;;;;4767717;30;20200;-85
2024/01/03 08:36:39;;;;;;;5.35;1.23;;;9.90;99.90;;;;;;4772301;30;20238;-87
2024/01/03 08:39:05;;;;;;;4.80;1.20;;;9.90;99.90;;;;;;4770804;30;20258;-84
2024/01/03 08:41:30;;;;;;;7.00;1.65;;;9.90;99.90;;;;;;4770242;30;20248;-86
2024/01/03 08:43:57;;;;;;;8.95;1.50;;;9.90;99.90;;;;;;4770322;30;20207;-84
2024/01/03 08:46:28;;;;;;;8.30;1.58;;;9.90;99.90;;;;;;4770489;30;20228;-87
2024/01/03 08:48:54;;;;;;;5.38;1.33;;;10.00;99.90;;;;;;4770953;30;20212;-85
2024/01/03 08:51:20;;;;;;;4.78;1.10;;;9.90;99.90;;;;;;4772138;30;20198;-89
2024/01/03 08:53:46;;;;;;;5.85;1.50;;;10.00;99.90;;;;;;4771927;30;20275;-87
2024/01/03 08:56:20;;;;;;;6.45;1.23;;;10.00;99.90;;;;;;4771745;30;20203;-89
2024/01/03 08:58:47;;;;;;;8.68;1.63;;;10.00;99.90;;;;;;4769414;30;20210;-89
2024/01/03 09:01:20;;;;;;;8.45;1.42;;;10.10;99.90;;;;;;4764529;30;20207;-91
2024/01/03 09:03:46;;;;;;;8.07;1.30;;;10.10;99.90;;;;;;4763503;30;20199;-84
2024/01/03 09:06:16;;;;;;;5.70;1.58;;;10.10;99.90;;;;;;4771334;30;20195;-84
2024/01/03 09:08:46;;;;;;;3.90;1.00;;;10.10;99.90;;;;;;4769797;30;20569;-88
2024/01/03 09:11:13;;;;;;;9.27;1.98;;;10.10;99.90;;;;;;4764698;30;20279;-84
2024/01/03 09:13:42;;;;;;;3.25;0.82;;;10.10;99.90;;;;;;4770160;30;20282;-84
2024/01/03 09:16:11;;;;;;;5.70;1.08;;;10.10;99.90;;;;;;4771252;30;20188;-89
2024/01/03 09:18:37;;;;;;;5.85;0.80;;;10.10;99.90;;;;;;4771520;30;20188;-91
2024/01/03 09:21:04;;;;;;;5.07;1.45;;;10.20;99.90;;;;;;4771400;30;20206;-84
2024/01/03 09:23:30;;;;;;;4.43;0.88;;;10.20;99.90;;;;;;4771294;30;20196;-83
2024/01/03 09:25:56;;;;;;;4.45;1.02;;;10.10;99.90;;;;;;4769699;30;20650;-86
2024/01/03 09:28:25;;;;;;;2.95;0.80;;;10.10;99.90;;;;;;4770789;30;20247;-89
2024/01/03 09:30:51;;;;;;;4.85;0.77;;;10.10;99.90;;;;;;4769967;30;20191;-83
2024/01/03 09:33:17;;;;;;;2.25;0.65;;;10.10;99.90;;;;;;4769644;30;20210;-85
2024/01/03 09:35:44;;;;;;;4.00;1.30;;;10.00;99.90;;;;;;4768841;30;20655;-86
2024/01/03 09:38:10;;;;;;;3.67;1.00;;;10.10;99.90;;;;;;4765934;30;20207;-83
2024/01/03 09:40:36;;;;;;;3.85;0.80;;;10.10;99.90;;;;;;4768254;29;20184;-86
2024/01/03 09:43:03;;;;;;;2.00;0.70;;;10.10;99.90;;;;;;4758569;30;20290;-90
2024/01/03 09:45:30;;;;;;;2.22;0.60;;;10.10;99.90;;;;;;4789121;29;20187;-84
2024/01/03 09:47:57;;;;;;;2.13;0.98;;;10.10;99.90;;;;;;4788626;30;20288;-88
2024/01/03 09:50:23;;;;;;;4.88;0.63;;;10.10;99.90;;;;;;4789138;30;20208;-85
2024/01/03 09:52:49;;;;;;;7.57;0.98;;;10.10;99.90;;;;;;4779957;30;20200;-86
2024/01/03 09:55:18;;;;;;;3.85;0.80;;;10.10;99.90;;;;;;4775809;30;20219;-84
2024/01/03 09:57:45;;;;;;;3.50;1.00;;;10.10;99.90;;;;;;4772320;30;20191;-85
2024/01/03 10:00:11;;;;;;;3.72;0.80;;;10.00;99.90;;;;;;4784807;30;20532;-86
2024/01/03 10:02:37;;;;;;;5.15;1.50;;;10.00;99.90;;;;;;4785678;30;20199;-83
2024/01/03 10:05:06;;;;;;;3.38;0.73;;;9.90;99.90;;;;;;4769186;30;20267;-88
2024/01/03 10:07:36;;;;;;;2.92;1.20;;;9.80;99.90;;;;;;4781567;29;20231;-87
2024/01/03 10:10:03;;;;;;;2.40;0.60;;;9.90;99.90;;;;;;4771016;30;20180;-86
2024/01/03 10:12:32;;;;;;;4.03;0.90;;;9.90;99.90;;;;;;4761336;30;20249;-85
2024/01/03 10:15:18;;;;;;;2.45;0.70;;;10.00;99.90;;;;;;4765471;30;20248;-85
2024/01/03 10:17:48;;;;;;;4.30;0.63;;;10.00;99.90;;;;;;4763367;30;20250;-88
2024/01/03 10:20:40;;;;;;;3.20;0.82;;;10.00;99.90;;;;;;4755231;30;20203;-87
2024/01/03 10:23:07;;;;;;;2.88;0.65;;;10.10;99.90;;;;;;4762865;30;20214;-85
2024/01/03 10:25:33;;;;;;;2.10;0.70;;;10.10;99.90;;;;;;4766034;30;20196;-88
2024/01/03 10:28:03;;;;;;;4.05;0.70;;;10.10;99.90;;;;;;4762096;30;20224;-88
2024/01/03 10:30:30;;;;;;;3.63;0.57;;;10.10;99.90;;;;;;4761260;30;20274;-85
2024/01/03 10:33:00;;;;;;;2.35;0.50;;;10.10;99.90;;;;;;4758069;30;20291;-85
2024/01/03 10:35:33;;;;;;;2.47;0.60;;;10.00;99.90;;;;;;4781386;30;20500;-88
2024/01/03 10:38:00;;;;;;;3.92;0.82;;;9.90;99.90;;;;;;4789939;29;20239;-83
2024/01/03 10:40:33;;;;;;;6.28;0.75;;;9.80;99.90;;;;;;4776342;30;20233;-84
2024/01/03 10:42:59;;;;;;;1.40;0.50;;;9.70;99.90;;;;;;4753929;30;20221;-85
2024/01/03 10:45:26;;;;;;;2.90;0.70;;;9.60;99.90;;;;;;4756898;30;20228;-87
2024/01/03 10:47:53;;;;;;;2.00;0.50;;;9.60;99.90;;;;;;4757213;30;20227;-87
2024/01/03 10:50:19;;;;;;;2.45;0.45;;;9.50;99.90;;;;;;4781741;30;20195;-86
2024/01/03 10:52:46;;;;;;;2.03;0.60;;;9.40;99.90;;;;;;4765605;30;20196;-88
2024/01/03 10:55:20;;;;;;;1.90;0.68;;;9.30;99.90;;;;;;4769704;30;20195;-88
2024/01/03 10:58:03;;;;;;;2.63;0.50;;;9.20;99.90;;;;;;4768606;30;20196;-89
2024/01/03 11:00:47;;;;;;;2.13;0.45;;;9.10;99.90;;;;;;4778523;30;20271;-86
2024/01/03 11:03:18;;;;;;;4.57;0.80;;;9.00;99.90;;;;;;4763559;30;20276;-83
2024/01/03 11:06:00;;;;;;;2.40;0.80;;;9.00;99.90;;;;;;4768064;30;20555;-83
2024/01/03 11:08:34;;;;;;;3.00;0.77;;;9.00;99.90;;;;;;4769604;30;20306;-82
2024/01/03 11:11:00;;;;;;;3.45;0.50;;;9.00;99.90;;;;;;4790811;30;20713;-84
2024/01/03 11:13:34;;;;;;;3.53;0.80;;;9.00;99.90;;;;;;4774792;30;20286;-83
2024/01/03 11:16:02;;;;;;;0.68;0.40;;;8.90;99.90;;;;;;4790922;29;20248;-82
2024/01/03 11:18:51;;;;;;;2.47;0.95;;;8.90;99.90;;;;;;4768640;30;20188;-83
2024/01/03 11:21:31;;;;;;;4.50;0.60;;;8.90;99.90;;;;;;4751666;30;20211;-84
2024/01/03 11:23:57;;;;;;;2.13;0.60;;;9.00;99.90;;;;;;4765324;30;20250;-83
2024/01/03 11:26:58;;;;;;;3.90;1.10;;;9.00;99.90;;;;;;4791013;30;20210;-86
2024/01/03 11:29:36;;;;;;;2.22;0.80;;;9.00;99.90;;;;;;4782069;30;20530;-82
2024/01/03 11:32:04;;;;;;;2.90;0.50;;;9.00;99.90;;;;;;4775253;30;20191;-85
2024/01/03 11:34:44;;;;;;;2.08;0.55;;;9.00;99.90;;;;;;4789545;30;20188;-84
2024/01/03 11:37:19;;;;;;;2.55;0.77;;;9.00;99.90;;;;;;4756214;30;20191;-83
2024/01/03 11:39:46;;;;;;;5.10;0.90;;;9.00;99.90;;;;;;4775138;30;20286;-83
2024/01/03 11:42:38;;;;;;;3.70;0.68;;;9.00;99.90;;;;;;4767257;30;20243;-83
2024/01/03 11:45:19;;;;;;;3.17;0.93;;;9.00;99.90;;;;;;4759031;30;20188;-85
2024/01/03 11:47:49;;;;;;;4.05;0.85;;;9.00;99.90;;;;;;4770488;30;20223;-88
2024/01/03 11:50:16;;;;;;;4.47;0.77;;;9.00;99.90;;;;;;4766462;30;20191;-88
2024/01/03 11:52:48;;;;;;;4.45;1.13;;;9.00;99.90;;;;;;4771645;30;20662;-85
2024/01/03 11:55:16;;;;;;;3.17;0.82;;;9.00;99.90;;;;;;4772569;30;20694;-88
2024/01/03 11:57:46;;;;;;;4.45;1.00;;;9.00;99.90;;;;;;4771730;30;20202;-88
2024/01/03 12:00:15;;;;;;;2.45;0.70;;;9.00;99.90;;;;;;4772216;30;20196;-85
2024/01/03 12:02:54;;;;;;;2.33;0.73;;;9.10;99.90;;;;;;4770757;30;20238;-84
2024/01/03 12:05:22;;;;;;;3.47;0.63;;;9.10;99.90;;;;;;4761996;30;20215;-85
2024/01/03 12:07:49;;;;;;;3.70;0.77;;;9.20;99.90;;;;;;4761791;30;20233;-85
2024/01/03 12:10:16;;;;;;;3.75;0.90;;;9.20;99.90;;;;;;4772728;30;20191;-88
2024/01/03 12:12:44;;;;;;;1.70;0.70;;;9.30;99.90;;;;;;4757649;30;20193;-85
2024/01/03 12:15:24;;;;;;;5.80;0.90;;;9.30;99.90;;;;;;4763052;30;20615;-84
2024/01/03 12:17:51;;;;;;;4.03;0.77;;;9.30;99.90;;;;;;4770300;30;20284;-89
2024/01/03 12:20:20;;;;;;;3.63;0.95;;;9.30;99.90;;;;;;4764270;30;20520;-85
2024/01/03 12:22:46;;;;;;;1.80;0.70;;;9.40;99.90;;;;;;4770987;30;20249;-84
2024/01/03 12:25:25;;;;;;;4.55;1.27;;;9.40;99.90;;;;;;4764220;30;20279;-86
2024/01/03 12:27:57;;;;;;;4.38;0.88;;;9.50;99.90;;;;;;4769025;30;20226;-91
2024/01/03 12:30:23;;;;;;;4.32;0.88;;;9.40;99.90;;;;;;4758637;30;20280;-85
2024/01/03 12:32:51;;;;;;;3.63;0.65;;;9.50;99.90;;;;;;4763465;30;20271;-85
2024/01/03 12:35:17;;;;;;;3.72;0.90;;;9.50;99.90;;;;;;4759211;30;20218;-84
2024/01/03 12:37:46;;;;;;;2.88;1.10;;;9.60;99.90;;;;;;4770458;30;20333;-84
2024/01/03 12:40:16;;;;;;;3.65;0.93;;;9.70;99.90;;;;;;4770661;30;20255;-90
2024/01/03 12:42:43;;;;;;;1.92;0.80;;;9.60;99.90;;;;;;4786911;30;20323;-87
2024/01/03 12:45:09;;;;;;;1.92;0.90;;;9.60;99.90;;;;;;4773854;30;20537;-87
2024/01/03 12:47:35;;;;;;;3.10;0.85;;;9.60;99.90;;;;;;4789315;30;20215;-90
2024/01/03 12:50:01;;;;;;;3.47;0.80;;;9.60;99.90;;;;;;4773572;30;20199;-86
2024/01/03 12:52:29;;;;;;;4.75;0.63;;;9.60;99.90;;;;;;4790241;30;20627;-87
2024/01/03 12:54:56;;;;;;;3.53;0.82;;;9.60;99.90;;;;;;4773912;30;20210;-88
2024/01/03 12:57:22;;;;;;;4.15;0.95;;;9.70;99.90;;;;;;4789307;29;20190;-87
2024/01/03 12:59:49;;;;;;;3.38;0.98;;;9.70;99.90;;;;;;4789759;30;20278;-87